createdAt,value
2023-03-02T00:17:45.135Z,46.17
2023-03-02T00:37:46.577Z,40.72
2023-03-02T00:57:48.368Z,43.67
2023-03-02T01:17:50.012Z,55.83
2023-03-02T01:37:51.861Z,59.17
2023-03-02T01:57:53.405Z,62.00
2023-03-02T02:17:55.249Z,60.55
2023-03-02T02:37:56.749Z,54.08
2023-03-02T02:57:58.582Z,55.47
2023-03-02T03:18:00.120Z,49.10
2023-03-02T03:38:02.880Z,51.22
2023-03-02T03:58:05.282Z,61.78
2023-03-02T04:18:07.342Z,75.22
2023-03-02T04:38:10.704Z,77.43
2023-03-02T04:58:12.358Z,88.32
2023-03-02T05:18:14.057Z,84.43
2023-03-02T05:38:15.765Z,79.63
2023-03-02T06:18:56.316Z,71.95
2023-03-02T06:39:16.541Z,64.18
2023-03-02T06:59:40.174Z,57.90
2023-03-02T08:01:06.372Z,58.10
2023-03-02T08:41:43.626Z,61.70
2023-03-02T09:01:53.694Z,60.70
2023-03-02T09:22:08.065Z,58.40
2023-03-02T09:42:13.686Z,49.80
2023-03-02T10:02:18.092Z,50.08
2023-03-02T10:22:25.779Z,25.73
2023-03-02T10:42:30.238Z,38.60
2023-03-02T11:02:37.180Z,18.48
2023-03-02T11:22:38.796Z,13.70
2023-03-02T11:42:40.413Z,12.30
2023-03-02T12:02:41.934Z,12.05
2023-03-02T12:22:43.740Z,11.07
2023-03-02T14:47:17.986Z,11.77
2023-03-02T15:07:19.611Z,12.88
2023-03-02T15:27:21.045Z,10.10
2023-03-02T15:47:22.694Z,11.70
2023-03-02T16:07:24.125Z,14.02
2023-03-02T16:27:25.813Z,13.95
2023-03-02T16:47:45.426Z,18.20
2023-03-02T17:08:05.786Z,17.50
2023-03-02T17:28:25.779Z,15.30
2023-03-02T17:48:46.002Z,18.38
2023-03-02T18:09:06.216Z,16.90
2023-03-02T18:29:26.584Z,18.23
2023-03-02T18:49:31.105Z,27.88
2023-03-02T19:09:36.020Z,28.50
2023-03-02T19:29:38.775Z,28.38
2023-03-02T19:49:40.496Z,40.05
2023-03-02T20:09:41.925Z,41.22
2023-03-02T20:29:43.653Z,37.80
2023-03-02T20:49:46.530Z,40.00
2023-03-02T21:09:48.400Z,41.75
2023-03-02T21:29:50.109Z,39.65
2023-03-02T21:49:51.904Z,40.75
2023-03-02T22:09:53.536Z,35.28
2023-03-02T22:29:55.234Z,34.28
2023-03-02T22:49:56.727Z,41.10
2023-03-02T23:09:58.393Z,36.13
2023-03-02T23:30:18.221Z,31.52
2023-03-02T23:50:38.133Z,29.30
